Time;durP1;ratioP1;P1;durP2;ratioP2;P2;SDS_P1;SDS_P2;PMS_P1;PMS_P2;Temp;Humidity;BMP_temperature;BMP_pressure;BME280_temperature;BME280_humidity;BME280_pressure;Samples;Min_cycle;Max_cycle;Signal;HPM_P1;HPM_P2
2021/03/21 00:01:40;;;;;;;1999.90;999.90;;;20.10;47.30;;;;;;5073311;28;20198;-49
2021/03/21 00:04:07;;;;;;;1999.90;999.90;;;20.20;46.60;;;;;;5073294;28;20607;-51
2021/03/21 00:06:33;;;;;;;1999.90;999.90;;;20.20;46.90;;;;;;5073248;28;20255;-58
2021/03/21 00:09:00;;;;;;;1999.90;999.90;;;20.20;45.60;;;;;;5073171;28;20165;-53
2021/03/21 00:11:27;;;;;;;1999.90;999.90;;;20.30;44.90;;;;;;5073122;28;20177;-48
2021/03/21 00:13:54;;;;;;;1999.90;999.90;;;20.00;46.30;;;;;;5073320;28;20173;-53
2021/03/21 00:16:21;;;;;;;1999.90;999.90;;;20.00;45.60;;;;;;5073178;28;20247;-51
2021/03/21 00:18:48;;;;;;;1999.90;999.90;;;20.10;45.50;;;;;;5073062;28;20573;-56
2021/03/21 00:21:16;;;;;;;1999.90;999.90;;;20.20;44.30;;;;;;5072557;28;20169;-55
2021/03/21 00:23:44;;;;;;;1999.90;999.90;;;20.20;45.00;;;;;;5073145;28;20176;-54
2021/03/21 00:26:12;;;;;;;1999.90;999.90;;;20.20;44.20;;;;;;5073014;28;20163;-55
2021/03/21 00:28:40;;;;;;;1999.90;999.90;;;20.10;45.40;;;;;;5072976;28;20249;-44
2021/03/21 00:31:10;;;;;;;1999.90;999.90;;;20.20;44.10;;;;;;5072965;28;20175;-50
2021/03/21 00:33:38;;;;;;;1999.90;999.90;;;20.10;44.50;;;;;;5072898;28;20306;-55
2021/03/21 00:36:08;;;;;;;1999.90;999.90;;;20.10;45.30;;;;;;5072911;28;20654;-51
2021/03/21 00:38:38;;;;;;;1999.90;999.90;;;20.20;43.90;;;;;;5072876;28;20274;-46
2021/03/21 00:41:07;;;;;;;1999.90;999.90;;;20.20;43.40;;;;;;5073151;28;20157;-56
2021/03/21 00:43:34;;;;;;;1999.90;999.90;;;20.10;45.30;;;;;;5072808;28;20172;-56
2021/03/21 00:46:01;;;;;;;1999.90;999.90;;;20.10;45.30;;;;;;5073358;28;20156;-41
2021/03/21 00:48:48;;;;;;;1999.90;999.90;;;20.00;44.60;;;;;;5073338;28;20169;-57
2021/03/21 00:51:17;;;;;;;1999.90;999.90;;;20.00;45.20;;;;;;5072888;28;20599;-55
2021/03/21 00:53:44;;;;;;;1999.90;999.90;;;20.00;43.40;;;;;;5072818;28;20164;-55
2021/03/21 00:56:34;;;;;;;1999.90;999.90;;;20.00;46.10;;;;;;5072540;28;20216;-52
2021/03/21 00:59:01;;;;;;;1999.90;999.90;;;19.90;45.80;;;;;;5072904;28;20189;-56
2021/03/21 01:01:30;;;;;;;1999.90;999.90;;;19.80;47.80;;;;;;5072814;28;20173;-54
2021/03/21 01:03:58;;;;;;;1999.90;999.90;;;19.80;46.60;;;;;;5072782;28;20642;-56
2021/03/21 01:06:25;;;;;;;1999.90;999.90;;;19.70;47.50;;;;;;5072704;28;20176;-55
2021/03/21 01:09:05;;;;;;;1999.90;999.90;;;19.80;47.30;;;;;;5072646;28;20531;-54
2021/03/21 01:11:35;;;;;;;1999.90;999.90;;;19.70;48.10;;;;;;5072595;28;20168;-42
2021/03/21 01:14:03;;;;;;;1999.90;999.90;;;19.70;47.30;;;;;;5072728;28;20244;-56
2021/03/21 01:16:34;;;;;;;1999.90;999.90;;;19.70;48.40;;;;;;5072667;28;20173;-56
2021/03/21 01:19:01;;;;;;;1999.90;999.90;;;19.70;48.20;;;;;;5072631;28;20192;-57
2021/03/21 01:21:32;;;;;;;1999.90;999.90;;;19.80;44.60;;;;;;5072706;28;20169;-56
2021/03/21 01:23:59;;;;;;;1999.90;999.90;;;20.10;43.90;;;;;;5072672;28;20164;-57
2021/03/21 01:26:27;;;;;;;1999.90;999.90;;;20.20;42.50;;;;;;5072469;28;20172;-41
2021/03/21 01:28:58;;;;;;;1999.90;999.90;;;20.20;42.20;;;;;;5072449;28;20169;-57
2021/03/21 01:31:26;;;;;;;1999.90;999.90;;;20.20;43.40;;;;;;5073177;28;20164;-56
2021/03/21 01:33:54;;;;;;;1999.90;999.90;;;20.20;43.80;;;;;;5076065;28;20524;-55
2021/03/21 01:36:31;;;;;;;1999.90;999.90;;;20.10;43.90;;;;;;5076177;28;20165;-56
2021/03/21 01:38:59;;;;;;;1999.90;999.90;;;20.00;46.00;;;;;;5076036;28;20245;-56
2021/03/21 01:41:30;;;;;;;1999.90;999.90;;;19.90;46.70;;;;;;5075958;28;20181;-55
2021/03/21 01:43:57;;;;;;;1999.90;999.90;;;19.80;46.00;;;;;;5075965;28;20165;-46
2021/03/21 01:46:36;;;;;;;1999.90;999.90;;;19.90;48.10;;;;;;5075911;28;20169;-57
2021/03/21 01:49:18;;;;;;;1999.90;999.90;;;19.80;48.50;;;;;;5076139;28;20206;-56
2021/03/21 01:51:46;;;;;;;1999.90;999.90;;;19.80;46.50;;;;;;5075805;28;20153;-48
2021/03/21 01:54:17;;;;;;;1999.90;999.90;;;19.80;47.40;;;;;;5075701;28;20654;-57
2021/03/21 01:56:45;;;;;;;1999.90;999.90;;;19.80;46.50;;;;;;5075584;28;20236;-48
2021/03/21 01:59:26;;;;;;;1999.90;999.90;;;19.70;48.10;;;;;;5075500;28;20286;-55
2021/03/21 02:01:56;;;;;;;1999.90;999.90;;;19.60;47.10;;;;;;5075668;28;20311;-57
2021/03/21 02:04:23;;;;;;;1999.90;999.90;;;19.60;47.10;;;;;;5075552;28;20614;-55
2021/03/21 02:07:05;;;;;;;1999.90;999.90;;;19.50;46.50;;;;;;5075612;28;20166;-58
2021/03/21 02:10:20;;;;;;;1999.90;999.90;;;19.50;45.40;;;;;;5075627;28;20175;-57
2021/03/21 02:12:59;;;;;;;1999.90;999.90;;;19.80;41.50;;;;;;5038556;28;20185;-47
2021/03/21 02:15:31;;;;;;;1999.90;999.90;;;19.90;46.90;;;;;;5075345;28;20178;-52
2021/03/21 02:18:13;;;;;;;1999.90;999.90;;;19.80;48.60;;;;;;5075276;28;20304;-57
2021/03/21 02:20:49;;;;;;;1999.90;999.90;;;19.80;45.80;;;;;;5075242;28;20575;-42
2021/03/21 02:23:24;;;;;;;1999.90;999.90;;;19.80;47.40;;;;;;5075360;28;20635;-50
2021/03/21 02:26:11;;;;;;;1999.90;999.90;;;19.80;48.30;;;;;;5075336;28;20186;-57
2021/03/21 02:29:15;;;;;;;1999.90;999.90;;;19.70;49.40;;;;;;5075033;28;20708;-42
2021/03/21 02:31:58;;;;;;;1999.90;999.90;;;19.70;48.70;;;;;;5075126;28;20161;-50
2021/03/21 02:34:31;;;;;;;1999.90;999.90;;;19.60;48.50;;;;;;5075034;28;20156;-56
2021/03/21 02:37:27;;;;;;;1999.90;999.90;;;19.80;48.10;;;;;;5074967;28;20608;-53
2021/03/21 02:40:01;;;;;;;1999.90;999.90;;;19.70;49.20;;;;;;5055488;28;20184;-54
2021/03/21 02:42:32;;;;;;;1999.90;999.90;;;19.60;49.00;;;;;;5074922;28;20164;-56
2021/03/21 02:45:08;;;;;;;1999.90;999.90;;;19.70;48.20;;;;;;5073121;28;20187;-43
2021/03/21 02:47:37;;;;;;;1999.90;999.90;;;19.70;46.60;;;;;;5075084;28;20189;-55
2021/03/21 02:50:24;;;;;;;1999.90;999.90;;;20.10;42.40;;;;;;5074604;28;20177;-57
2021/03/21 02:53:00;;;;;;;1999.90;999.90;;;20.30;44.50;;;;;;5074672;28;20160;-57
2021/03/21 02:55:40;;;;;;;1999.90;999.90;;;20.20;42.80;;;;;;5074390;28;20307;-49
2021/03/21 02:58:14;;;;;;;1999.90;999.90;;;20.30;42.30;;;;;;5074560;28;20721;-56
2021/03/21 03:01:06;;;;;;;1999.90;999.90;;;20.30;45.30;;;;;;5074947;28;20514;-43
2021/03/21 03:03:35;;;;;;;1999.90;999.90;;;20.10;44.60;;;;;;5074564;28;20282;-50
2021/03/21 03:06:08;;;;;;;1999.90;999.90;;;19.90;45.60;;;;;;5074502;28;20213;-56
2021/03/21 03:08:48;;;;;;;1999.90;999.90;;;19.90;44.30;;;;;;5074422;28;20157;-56
2021/03/21 03:11:27;;;;;;;1999.90;999.90;;;20.10;42.70;;;;;;5074242;28;20214;-44
2021/03/21 03:14:03;;;;;;;1999.90;999.90;;;20.30;42.50;;;;;;5074246;28;20152;-55
2021/03/21 03:16:51;;;;;;;1999.90;999.90;;;20.30;43.60;;;;;;5074222;28;20217;-57
2021/03/21 03:19:41;;;;;;;1999.90;999.90;;;20.30;44.00;;;;;;5074049;28;20196;-56
2021/03/21 03:22:23;;;;;;;1999.90;999.90;;;20.40;44.80;;;;;;5074315;28;20227;-42
2021/03/21 03:24:59;;;;;;;1999.90;999.90;;;20.40;44.60;;;;;;5074061;28;20163;-52
2021/03/21 03:27:35;;;;;;;1999.90;999.90;;;20.40;43.80;;;;;;5074281;28;20515;-42
2021/03/21 03:30:13;;;;;;;1999.90;999.90;;;20.30;43.60;;;;;;5074254;28;20484;-57
2021/03/21 03:32:40;;;;;;;1999.90;999.90;;;20.40;43.20;;;;;;5073962;28;20513;-56
2021/03/21 03:35:11;;;;;;;1999.90;999.90;;;20.30;42.50;;;;;;5073851;28;20176;-57
2021/03/21 03:37:38;;;;;;;1999.90;999.90;;;20.20;45.20;;;;;;5073950;28;20268;-54
2021/03/21 03:40:07;;;;;;;1999.90;999.90;;;20.00;45.90;;;;;;5073784;28;20164;-56
2021/03/21 03:42:48;;;;;;;1999.90;999.90;;;19.90;45.10;;;;;;5073666;28;20654;-44
2021/03/21 03:45:33;;;;;;;1999.90;999.90;;;19.80;47.30;;;;;;5073823;28;20198;-42
2021/03/21 03:48:27;;;;;;;1999.90;999.90;;;19.80;46.90;;;;;;5073488;28;20591;-47
2021/03/21 03:51:07;;;;;;;1999.90;999.90;;;19.80;47.30;;;;;;5065987;28;20204;-59
2021/03/21 03:53:47;;;;;;;1999.90;999.90;;;19.80;47.80;;;;;;5073497;28;20152;-50
2021/03/21 03:56:24;;;;;;;1999.90;999.90;;;19.80;47.50;;;;;;5072382;28;20238;-57
2021/03/21 03:58:57;;;;;;;1999.90;999.90;;;19.70;47.80;;;;;;5073171;28;20204;-57
2021/03/21 04:01:52;;;;;;;1999.90;999.90;;;19.70;47.90;;;;;;5073318;28;20218;-57
2021/03/21 04:04:36;;;;;;;1999.90;999.90;;;19.60;47.70;;;;;;5073325;28;20153;-53
2021/03/21 04:07:26;;;;;;;1999.90;999.90;;;19.70;47.10;;;;;;5073244;28;20160;-42
2021/03/21 04:10:12;;;;;;;1999.90;999.90;;;19.90;46.90;;;;;;5073198;28;20597;-57
2021/03/21 04:13:02;;;;;;;1999.90;999.90;;;20.00;46.60;;;;;;5073262;28;20637;-57
2021/03/21 04:15:33;;;;;;;1999.90;999.90;;;20.00;47.40;;;;;;5073159;28;20198;-56
2021/03/21 04:18:14;;;;;;;1999.90;999.90;;;19.90;46.60;;;;;;5073116;28;20195;-53
2021/03/21 04:20:47;;;;;;;1999.90;999.90;;;19.90;47.10;;;;;;5073288;28;20198;-58
2021/03/21 04:23:27;;;;;;;1999.90;999.90;;;19.80;48.00;;;;;;5073347;28;20161;-57
2021/03/21 04:26:10;;;;;;;1999.90;999.90;;;19.70;48.20;;;;;;5073342;28;20171;-57
2021/03/21 04:28:44;;;;;;;1999.90;999.90;;;19.70;46.30;;;;;;5072960;28;20167;-48
2021/03/21 04:31:13;;;;;;;1999.90;999.90;;;19.80;46.20;;;;;;5073043;28;20149;-56
2021/03/21 04:33:54;;;;;;;1999.90;999.90;;;19.70;46.60;;;;;;5072911;28;20283;-57
2021/03/21 04:36:30;;;;;;;1999.90;999.90;;;19.70;47.00;;;;;;5072900;28;20163;-57
2021/03/21 04:39:05;;;;;;;1999.90;999.90;;;19.50;46.60;;;;;;5072808;28;20206;-54
2021/03/21 04:41:55;;;;;;;1999.90;999.90;;;19.50;44.40;;;;;;5072890;28;20246;-57
2021/03/21 04:44:50;;;;;;;1999.90;999.90;;;19.70;43.90;;;;;;5072958;28;20180;-58
2021/03/21 04:47:33;;;;;;;1999.90;999.90;;;20.10;42.90;;;;;;5067329;28;20207;-57
2021/03/21 04:50:00;;;;;;;1999.90;999.90;;;20.00;43.40;;;;;;5072734;28;20176;-56
2021/03/21 04:52:42;;;;;;;1999.90;999.90;;;20.20;43.50;;;;;;5072761;28;20165;-54
2021/03/21 04:55:38;;;;;;;1999.90;999.90;;;20.30;43.80;;;;;;5072541;28;20240;-57
2021/03/21 04:58:13;;;;;;;1999.90;999.90;;;20.30;45.10;;;;;;5072791;28;20556;-57
2021/03/21 05:00:44;;;;;;;1999.90;999.90;;;20.10;46.60;;;;;;5072803;28;20172;-58
2021/03/21 05:03:27;;;;;;;1999.90;999.90;;;20.00;47.50;;;;;;5072650;28;20278;-57
2021/03/21 05:06:03;;;;;;;1999.90;999.90;;;19.90;47.30;;;;;;5072763;28;20291;-57
2021/03/21 05:08:38;;;;;;;1999.90;999.90;;;19.90;47.80;;;;;;5076690;28;20156;-57
2021/03/21 05:11:08;;;;;;;1999.90;999.90;;;19.80;48.40;;;;;;5076667;28;20567;-47
2021/03/21 05:13:56;;;;;;;1999.90;999.90;;;19.80;48.20;;;;;;5076519;28;20161;-51
2021/03/21 05:16:48;;;;;;;1999.90;999.90;;;19.80;49.10;;;;;;5076413;28;20653;-55
2021/03/21 05:19:36;;;;;;;1999.90;999.90;;;19.90;47.70;;;;;;5076302;28;20242;-57
2021/03/21 05:22:13;;;;;;;1999.90;999.90;;;19.90;48.20;;;;;;5076588;28;20586;-57
2021/03/21 05:25:27;;;;;;;1999.90;999.90;;;19.80;47.00;;;;;;5076305;28;20163;-57
2021/03/21 05:28:14;;;;;;;1999.90;999.90;;;20.00;46.50;;;;;;5074267;28;20230;-57
2021/03/21 05:30:41;;;;;;;1999.90;999.90;;;20.20;44.60;;;;;;5076247;28;20160;-49
2021/03/21 05:33:08;;;;;;;1999.90;999.90;;;20.40;45.00;;;;;;5076132;28;20160;-58
2021/03/21 05:35:39;;;;;;;1999.90;999.90;;;20.40;45.80;;;;;;5076045;28;20193;-58
2021/03/21 05:38:12;;;;;;;1999.90;999.90;;;20.30;46.80;;;;;;5076042;28;20199;-52
2021/03/21 05:41:06;;;;;;;1999.90;999.90;;;20.20;47.00;;;;;;5076006;28;20214;-57
2021/03/21 05:43:50;;;;;;;1999.90;999.90;;;20.20;47.10;;;;;;5076021;28;20194;-57
2021/03/21 05:46:51;;;;;;;1999.90;999.90;;;19.90;47.30;;;;;;5075954;28;20164;-56
2021/03/21 05:49:20;;;;;;;1999.90;999.90;;;19.90;48.30;;;;;;5075883;28;20156;-57
2021/03/21 05:52:20;;;;;;;1999.90;999.90;;;19.80;49.80;;;;;;5075842;28;20176;-58
2021/03/21 05:55:17;;;;;;;1999.90;999.90;;;19.60;49.40;;;;;;5075573;28;20488;-58
2021/03/21 05:58:20;;;;;;;1999.90;999.90;;;19.60;49.80;;;;;;5075706;28;20200;-58
2021/03/21 06:01:35;;;;;;;1999.90;999.90;;;19.60;50.10;;;;;;5075601;28;20503;-55
2021/03/21 06:04:43;;;;;;;1999.90;999.90;;;19.60;49.50;;;;;;5044080;28;20180;-53
2021/03/21 06:07:37;;;;;;;1999.90;999.90;;;19.70;49.80;;;;;;5075312;28;20200;-56
2021/03/21 06:10:40;;;;;;;1999.90;999.90;;;19.90;49.80;;;;;;5075600;28;20498;-57
2021/03/21 06:13:43;;;;;;;1999.90;999.90;;;20.00;49.20;;;;;;5075536;28;20172;-55
2021/03/21 06:16:47;;;;;;;1999.90;999.90;;;20.30;48.10;;;;;;5075432;28;20164;-57
2021/03/21 06:19:35;;;;;;;1999.90;999.90;;;20.70;46.20;;;;;;5074325;28;20200;-58
2021/03/21 06:22:23;;;;;;;1999.90;999.90;;;20.90;45.20;;;;;;5075332;28;20199;-50
2021/03/21 06:24:54;;;;;;;1999.90;999.90;;;21.00;45.10;;;;;;5075251;28;20207;-55
2021/03/21 06:27:36;;;;;;;1999.90;999.90;;;21.00;47.20;;;;;;5075202;28;20176;-54
2021/03/21 06:30:40;;;;;;;1999.90;999.90;;;21.10;45.20;;;;;;5075202;28;20164;-56
2021/03/21 06:33:37;;;;;;;1999.90;999.90;;;21.30;43.80;;;;;;5075053;28;20156;-54
2021/03/21 06:36:35;;;;;;;1999.90;999.90;;;21.60;43.80;;;;;;5075035;28;20256;-56
2021/03/21 06:39:37;;;;;;;1999.90;999.90;;;22.20;40.20;;;;;;5074949;28;20232;-56
2021/03/21 06:42:45;;;;;;;1999.90;999.90;;;22.40;39.90;;;;;;5074926;28;20156;-49
2021/03/21 06:45:39;;;;;;;1999.90;999.90;;;22.60;38.90;;;;;;5060800;28;20181;-57
2021/03/21 06:48:19;;;;;;;1999.90;999.90;;;22.50;38.80;;;;;;5074788;28;20157;-52
2021/03/21 06:51:03;;;;;;;1999.90;999.90;;;22.80;37.50;;;;;;5074761;28;20164;-57
2021/03/21 06:54:19;;;;;;;1999.90;999.90;;;22.90;37.50;;;;;;5074607;28;20165;-41
2021/03/21 06:57:16;;;;;;;1999.90;999.90;;;23.20;36.20;;;;;;5073176;28;20231;-52
2021/03/21 07:00:14;;;;;;;1999.90;999.90;;;23.50;36.80;;;;;;5074477;28;20279;-52
2021/03/21 07:03:00;;;;;;;1999.90;999.90;;;23.60;36.30;;;;;;5074597;28;20245;-56
2021/03/21 07:05:51;;;;;;;1999.90;999.90;;;23.70;36.10;;;;;;5074613;28;20231;-46
2021/03/21 07:08:27;;;;;;;1999.90;999.90;;;23.80;35.40;;;;;;5074399;28;20214;-57
2021/03/21 07:11:21;;;;;;;1999.90;999.90;;;23.80;35.10;;;;;;5074388;28;20152;-57
2021/03/21 07:14:00;;;;;;;1999.90;999.90;;;23.80;36.10;;;;;;5074188;28;20161;-49
2021/03/21 07:16:29;;;;;;;1999.90;999.90;;;23.80;36.70;;;;;;5074253;28;20160;-57
2021/03/21 07:19:27;;;;;;;1999.90;999.90;;;23.90;37.90;;;;;;5074254;28;20287;-44
2021/03/21 07:22:30;;;;;;;1999.90;999.90;;;24.00;36.60;;;;;;5074154;28;20157;-57
2021/03/21 07:25:19;;;;;;;1999.90;999.90;;;24.10;36.40;;;;;;5074132;28;20168;-42
2021/03/21 07:28:08;;;;;;;1999.90;999.90;;;24.10;36.10;;;;;;5073857;28;20172;-48
2021/03/21 07:31:19;;;;;;;1999.90;999.90;;;24.30;36.10;;;;;;5073738;28;20157;-55
2021/03/21 07:34:16;;;;;;;1999.90;999.90;;;24.50;35.30;;;;;;5073690;28;20615;-45
2021/03/21 07:36:43;;;;;;;1999.90;999.90;;;24.60;34.60;;;;;;5073612;28;20160;-57
2021/03/21 07:39:31;;;;;;;1999.90;999.90;;;24.80;34.60;;;;;;5073486;28;20207;-56
2021/03/21 07:42:25;;;;;;;1999.90;999.90;;;25.00;33.60;;;;;;5073561;28;20185;-57
2021/03/21 07:45:23;;;;;;;1999.90;999.90;;;25.10;34.10;;;;;;5073629;28;20160;-57
2021/03/21 07:48:09;;;;;;;1999.90;999.90;;;25.30;33.00;;;;;;5073549;28;20160;-53
2021/03/21 07:51:08;;;;;;;1999.90;999.90;;;25.50;30.50;;;;;;5073940;28;20518;-48
2021/03/21 07:54:01;;;;;;;1999.90;999.90;;;25.70;30.50;;;;;;5040008;28;20265;-51
2021/03/21 07:56:55;;;;;;;1999.90;999.90;;;25.80;31.70;;;;;;5053803;28;20245;-57
2021/03/21 07:59:31;;;;;;;1999.90;999.90;;;25.90;30.40;;;;;;5073316;28;20204;-57
2021/03/21 08:01:58;;;;;;;1999.90;999.90;;;26.30;32.00;;;;;;5073389;28;20152;-57
2021/03/21 08:04:32;;;;;;;1999.90;999.90;;;26.30;32.30;;;;;;5073253;28;20643;-58
2021/03/21 08:07:25;;;;;;;1999.90;999.90;;;26.80;30.30;;;;;;5073311;28;20153;-58
2021/03/21 08:09:52;;;;;;;1999.90;999.90;;;27.70;30.00;;;;;;5073265;28;20161;-57
2021/03/21 08:12:19;;;;;;;1999.90;999.90;;;28.00;30.00;;;;;;5073192;28;20639;-56
2021/03/21 08:15:14;;;;;;;1999.90;999.90;;;28.00;29.60;;;;;;5073150;28;20527;-57
2021/03/21 08:17:49;;;;;;;1999.90;999.90;;;28.60;28.40;;;;;;5073354;28;20516;-58
2021/03/21 08:20:39;;;;;;;1999.90;999.90;;;29.00;27.60;;;;;;5073054;28;20160;-56
2021/03/21 08:23:12;;;;;;;1999.90;999.90;;;29.20;27.20;;;;;;5073087;28;20602;-53
2021/03/21 08:25:39;;;;;;;1999.90;999.90;;;29.50;27.20;;;;;;5073206;28;20568;-52
2021/03/21 08:28:06;;;;;;;1999.90;999.90;;;29.80;27.00;;;;;;5072895;28;20247;-57
2021/03/21 08:30:53;;;;;;;1999.90;999.90;;;30.10;26.70;;;;;;5073237;28;20187;-47
2021/03/21 08:33:39;;;;;;;1999.90;999.90;;;30.60;25.50;;;;;;5072853;28;20160;-56
2021/03/21 08:36:15;;;;;;;1999.90;999.90;;;29.60;26.10;;;;;;5073057;28;20156;-50
2021/03/21 08:39:00;;;;;;;1999.90;999.90;;;29.40;26.70;;;;;;5072746;28;20679;-51
2021/03/21 08:41:29;;;;;;;1999.90;999.90;;;29.00;26.30;;;;;;5072365;28;20161;-54
2021/03/21 08:44:04;;;;;;;1999.90;999.90;;;29.50;26.20;;;;;;5072677;28;20225;-55
2021/03/21 08:46:32;;;;;;;1999.90;999.90;;;29.80;26.00;;;;;;5072537;28;20152;-51
2021/03/21 08:49:04;;;;;;;1999.90;999.90;;;29.60;25.90;;;;;;5072565;28;20396;-57
2021/03/21 08:51:39;;;;;;;1999.90;999.90;;;30.20;26.20;;;;;;5072248;28;20632;-50
2021/03/21 08:54:14;;;;;;;1999.90;999.90;;;30.80;25.80;;;;;;5072715;28;20202;-43
2021/03/21 08:56:56;;;;;;;1999.90;999.90;;;31.10;25.40;;;;;;5072262;28;20216;-58
2021/03/21 08:59:31;;;;;;;1999.90;999.90;;;31.40;25.10;;;;;;5072110;28;20193;-53
2021/03/21 09:02:01;;;;;;;1999.90;999.90;;;31.70;24.90;;;;;;5071200;28;20176;-56
2021/03/21 09:04:29;;;;;;;1999.90;999.90;;;32.40;23.70;;;;;;5072629;28;20157;-56
2021/03/21 09:07:22;;;;;;;1999.90;999.90;;;31.90;23.80;;;;;;5072758;28;20226;-44
2021/03/21 09:10:12;;;;;;;1999.90;999.90;;;30.80;24.70;;;;;;5072982;28;20259;-54
2021/03/21 09:12:41;;;;;;;1999.90;999.90;;;30.40;25.30;;;;;;5073023;28;20169;-57
2021/03/21 09:15:17;;;;;;;1999.90;999.90;;;30.10;25.70;;;;;;5073022;28;20255;-56
2021/03/21 09:18:20;;;;;;;1999.90;999.90;;;30.10;26.40;;;;;;5072662;28;20168;-57
2021/03/21 09:21:15;;;;;;;1999.90;999.90;;;30.20;26.90;;;;;;5030481;28;20231;-55
2021/03/21 09:23:52;;;;;;;1999.90;999.90;;;31.00;26.00;;;;;;5072270;28;20181;-51
2021/03/21 09:26:20;;;;;;;1999.90;999.90;;;29.40;26.40;;;;;;5072552;28;20168;-56
2021/03/21 09:28:55;;;;;;;1999.90;999.90;;;29.20;27.40;;;;;;5072418;28;20176;-56
2021/03/21 09:31:24;;;;;;;1999.90;999.90;;;30.20;26.40;;;;;;5072517;28;20159;-57
2021/03/21 09:34:04;;;;;;;1999.90;999.90;;;31.00;25.20;;;;;;5072468;28;20184;-48
2021/03/21 09:36:43;;;;;;;1999.90;999.90;;;31.40;25.80;;;;;;5072442;28;20239;-51
2021/03/21 09:39:39;;;;;;;1999.90;999.90;;;30.50;25.90;;;;;;5072441;28;20258;-54
2021/03/21 09:42:11;;;;;;;1999.90;999.90;;;30.30;26.90;;;;;;5070294;28;20188;-53
2021/03/21 09:44:46;;;;;;;1999.90;999.90;;;30.10;27.10;;;;;;5072277;28;20157;-54
2021/03/21 09:47:30;;;;;;;1999.90;999.90;;;29.80;26.60;;;;;;5072394;28;20251;-52
2021/03/21 09:50:16;;;;;;;1999.90;999.90;;;29.50;26.80;;;;;;5072283;28;20152;-58
2021/03/21 09:53:07;;;;;;;1999.90;999.90;;;29.50;26.40;;;;;;5072397;28;20171;-57
2021/03/21 09:55:55;;;;;;;1999.90;999.90;;;29.90;27.10;;;;;;5075628;28;20888;-55
2021/03/21 09:58:51;;;;;;;1999.90;999.90;;;30.40;25.90;;;;;;5075728;28;20196;-58
2021/03/21 10:01:32;;;;;;;1999.90;999.90;;;30.50;26.10;;;;;;5075715;28;20638;-56
2021/03/21 10:04:22;;;;;;;1999.90;999.90;;;30.10;26.30;;;;;;5075746;28;20189;-58
2021/03/21 10:06:52;;;;;;;1999.90;999.90;;;30.30;26.20;;;;;;5075695;28;20557;-57
2021/03/21 10:09:25;;;;;;;1999.90;999.90;;;29.60;26.60;;;;;;5075554;28;20240;-57
2021/03/21 10:12:04;;;;;;;1999.90;999.90;;;29.10;27.30;;;;;;5075532;28;20239;-58
2021/03/21 10:14:31;;;;;;;1999.90;999.90;;;29.40;27.00;;;;;;5075383;28;20168;-55
2021/03/21 10:17:01;;;;;;;1999.90;999.90;;;29.90;26.60;;;;;;5075386;28;20583;-58
2021/03/21 10:19:37;;;;;;;1999.90;999.90;;;30.30;26.00;;;;;;5075257;28;20674;-57
2021/03/21 10:22:26;;;;;;;1999.90;999.90;;;30.10;26.60;;;;;;5075263;28;20165;-58
2021/03/21 10:25:21;;;;;;;1999.90;999.90;;;29.90;26.70;;;;;;5075263;28;20169;-50
2021/03/21 10:27:50;;;;;;;1999.90;999.90;;;29.60;26.30;;;;;;5075213;28;20238;-56
2021/03/21 10:30:27;;;;;;;1999.90;999.90;;;29.50;26.40;;;;;;5075107;28;20690;-48
2021/03/21 10:33:00;;;;;;;1999.90;999.90;;;29.70;26.00;;;;;;5075158;28;20295;-58
2021/03/21 10:35:30;;;;;;;1999.90;999.90;;;30.30;26.10;;;;;;5075021;28;20168;-48
2021/03/21 10:38:43;;;;;;;1999.90;999.90;;;29.90;27.00;;;;;;5074934;28;20556;-57
2021/03/21 10:41:11;;;;;;;1999.90;999.90;;;30.10;27.00;;;;;;5074924;28;20557;-58
2021/03/21 10:43:57;;;;;;;1999.90;999.90;;;29.70;26.70;;;;;;5074913;28;20169;-57
2021/03/21 10:46:48;;;;;;;1999.90;999.90;;;30.00;26.50;;;;;;5074886;28;20164;-58
2021/03/21 10:49:53;;;;;;;1999.90;999.90;;;29.80;26.40;;;;;;5074981;28;20161;-58
2021/03/21 10:52:34;;;;;;;1999.90;999.90;;;30.20;26.70;;;;;;5074829;28;20643;-57
2021/03/21 10:55:13;;;;;;;1999.90;999.90;;;30.40;26.00;;;;;;5074366;28;20251;-57
2021/03/21 10:57:43;;;;;;;1999.90;999.90;;;29.90;25.50;;;;;;5074551;28;20165;-59
2021/03/21 11:00:24;;;;;;;1999.90;999.90;;;30.20;25.50;;;;;;5074455;28;20172;-59
2021/03/21 11:03:16;;;;;;;1999.90;999.90;;;30.20;26.30;;;;;;5074538;28;20192;-57
2021/03/21 11:05:46;;;;;;;1999.90;999.90;;;30.60;26.10;;;;;;5073990;28;20589;-58
2021/03/21 11:08:13;;;;;;;1999.90;999.90;;;30.20;25.30;;;;;;5074357;28;20156;-58
2021/03/21 11:10:42;;;;;;;1999.90;999.90;;;29.90;26.10;;;;;;5074329;28;20210;-58
2021/03/21 11:13:12;;;;;;;1999.90;999.90;;;30.20;25.10;;;;;;5074264;28;20161;-58
2021/03/21 11:15:45;;;;;;;1999.90;999.90;;;30.40;25.70;;;;;;5074125;28;20210;-58
2021/03/21 11:18:25;;;;;;;1999.90;999.90;;;30.80;25.50;;;;;;5074025;28;20223;-56
2021/03/21 11:21:23;;;;;;;1999.90;999.90;;;30.00;25.00;;;;;;5074085;28;20156;-56
2021/03/21 11:24:23;;;;;;;1999.90;999.90;;;30.00;26.40;;;;;;5066081;28;20207;-57
2021/03/21 11:26:50;;;;;;;1999.90;999.90;;;30.40;26.20;;;;;;5074224;28;20523;-58
2021/03/21 11:29:27;;;;;;;1999.90;999.90;;;30.50;26.80;;;;;;5074101;28;20173;-57
2021/03/21 11:31:59;;;;;;;1999.90;999.90;;;30.30;26.80;;;;;;5073967;28;20161;-55
2021/03/21 11:34:32;;;;;;;1999.90;999.90;;;29.80;26.40;;;;;;5073793;28;20179;-55
2021/03/21 11:37:12;;;;;;;1999.90;999.90;;;29.80;26.60;;;;;;5074074;28;20165;-57
2021/03/21 11:39:47;;;;;;;1999.90;999.90;;;30.20;26.70;;;;;;5073603;28;20222;-58
2021/03/21 11:42:51;;;;;;;1999.90;999.90;;;30.00;26.10;;;;;;5073685;28;20152;-57
2021/03/21 11:45:31;;;;;;;1999.90;999.90;;;29.60;26.40;;;;;;5064550;28;20188;-57
2021/03/21 11:48:21;;;;;;;1999.90;999.90;;;29.80;27.20;;;;;;5073529;28;20157;-57
2021/03/21 11:50:52;;;;;;;1999.90;999.90;;;30.30;26.40;;;;;;5067229;28;20176;-53
2021/03/21 11:53:23;;;;;;;1999.90;999.90;;;30.30;25.90;;;;;;5073696;28;20157;-57
2021/03/21 11:56:11;;;;;;;1999.90;999.90;;;30.60;25.90;;;;;;5073350;28;20306;-57
2021/03/21 11:58:58;;;;;;;1999.90;999.90;;;30.20;25.40;;;;;;5073356;28;20188;-56
2021/03/21 12:01:30;;;;;;;1999.90;999.90;;;30.40;25.80;;;;;;5073473;28;20152;-53
2021/03/21 12:04:05;;;;;;;1999.90;999.90;;;30.60;26.10;;;;;;5073343;28;20176;-55
2021/03/21 12:06:46;;;;;;;1999.90;999.90;;;30.80;25.10;;;;;;5073331;28;20259;-57
2021/03/21 12:09:28;;;;;;;1999.90;999.90;;;30.80;24.20;;;;;;5073346;28;20207;-58
2021/03/21 12:11:58;;;;;;;1999.90;999.90;;;30.90;25.10;;;;;;5073366;28;20165;-58
2021/03/21 12:14:43;;;;;;;1999.90;999.90;;;30.70;24.40;;;;;;5073571;28;20164;-49
2021/03/21 12:17:25;;;;;;;1999.90;999.90;;;30.90;25.30;;;;;;5072300;28;20165;-50
2021/03/21 12:19:58;;;;;;;1999.90;999.90;;;30.80;25.50;;;;;;5073118;28;20619;-58
2021/03/21 12:22:40;;;;;;;1999.90;999.90;;;30.70;26.00;;;;;;5073109;28;20174;-58
2021/03/21 12:25:25;;;;;;;1999.90;999.90;;;30.80;24.70;;;;;;5072991;28;20634;-44
2021/03/21 12:28:00;;;;;;;1999.90;999.90;;;30.60;25.30;;;;;;5073054;28;20183;-55
2021/03/21 12:31:01;;;;;;;1999.90;999.90;;;30.40;25.70;;;;;;5072887;28;20163;-44
2021/03/21 12:33:28;;;;;;;1999.90;999.90;;;29.90;26.60;;;;;;5063927;28;20658;-50
2021/03/21 12:36:04;;;;;;;1999.90;999.90;;;30.70;26.80;;;;;;5072856;28;20251;-56
2021/03/21 12:38:47;;;;;;;1999.90;999.90;;;30.60;25.20;;;;;;5072788;28;20551;-57
2021/03/21 12:41:33;;;;;;;1999.90;999.90;;;30.90;26.10;;;;;;5072763;28;20196;-44
2021/03/21 12:44:22;;;;;;;1999.90;999.90;;;31.00;26.10;;;;;;5072833;28;20247;-54
2021/03/21 12:47:00;;;;;;;1999.90;999.90;;;31.00;25.70;;;;;;5072770;28;20156;-56
2021/03/21 12:49:29;;;;;;;1999.90;999.90;;;30.90;25.60;;;;;;5072862;28;20163;-57
2021/03/21 12:52:05;;;;;;;1999.90;999.90;;;31.00;25.90;;;;;;5072796;28;20173;-56
2021/03/21 12:54:33;;;;;;;1999.90;999.90;;;31.00;24.60;;;;;;5072553;28;20170;-47
2021/03/21 12:57:00;;;;;;;1999.90;999.90;;;31.10;23.50;;;;;;5072624;28;20222;-54
2021/03/21 12:59:27;;;;;;;1999.90;999.90;;;30.70;25.30;;;;;;5072613;28;20236;-46
2021/03/21 13:01:54;;;;;;;1999.90;999.90;;;30.30;25.60;;;;;;5072609;28;20157;-55